sensor_id;sensor_type;location;lat;lon;timestamp;P1;durP1;ratioP1;P2;durP2;ratioP2
12348;SDS011;5974;42.710;27.258;2023-05-27T00:01:45;6.70;;;5.10;;
12348;SDS011;5974;42.710;27.258;2023-05-27T00:04:12;6.40;;;4.53;;
12348;SDS011;5974;42.710;27.258;2023-05-27T00:06:39;5.23;;;4.43;;
12348;SDS011;5974;42.710;27.258;2023-05-27T00:09:07;6.63;;;4.37;;
12348;SDS011;5974;42.710;27.258;2023-05-27T00:11:35;4.77;;;4.33;;
12348;SDS011;5974;42.710;27.258;2023-05-27T00:14:02;6.10;;;4.40;;
12348;SDS011;5974;42.710;27.258;2023-05-27T00:16:28;6.67;;;5.43;;
12348;SDS011;5974;42.710;27.258;2023-05-27T00:18:56;5.10;;;4.60;;
12348;SDS011;5974;42.710;27.258;2023-05-27T00:21:24;5.57;;;4.77;;
12348;SDS011;5974;42.710;27.258;2023-05-27T00:23:51;7.37;;;3.97;;
12348;SDS011;5974;42.710;27.258;2023-05-27T00:26:19;5.40;;;4.90;;
12348;SDS011;5974;42.710;27.258;2023-05-27T00:28:47;5.23;;;4.87;;
12348;SDS011;5974;42.710;27.258;2023-05-27T00:31:13;5.80;;;5.30;;
12348;SDS011;5974;42.710;27.258;2023-05-27T00:33:41;7.13;;;5.30;;
12348;SDS011;5974;42.710;27.258;2023-05-27T00:36:09;7.83;;;5.20;;
12348;SDS011;5974;42.710;27.258;2023-05-27T00:38:35;6.03;;;5.43;;
12348;SDS011;5974;42.710;27.258;2023-05-27T00:41:03;7.43;;;5.30;;
12348;SDS011;5974;42.710;27.258;2023-05-27T00:43:32;9.83;;;5.33;;
12348;SDS011;5974;42.710;27.258;2023-05-27T00:45:59;6.87;;;5.83;;
12348;SDS011;5974;42.710;27.258;2023-05-27T00:48:26;6.20;;;5.60;;
12348;SDS011;5974;42.710;27.258;2023-05-27T00:50:54;10.37;;;5.23;;
12348;SDS011;5974;42.710;27.258;2023-05-27T00:53:21;7.23;;;5.27;;
12348;SDS011;5974;42.710;27.258;2023-05-27T00:55:50;9.93;;;5.60;;
12348;SDS011;5974;42.710;27.258;2023-05-27T00:58:20;6.37;;;5.57;;
12348;SDS011;5974;42.710;27.258;2023-05-27T01:00:48;6.50;;;5.90;;
12348;SDS011;5974;42.710;27.258;2023-05-27T01:03:15;7.33;;;5.70;;
12348;SDS011;5974;42.710;27.258;2023-05-27T01:05:45;8.53;;;6.37;;
12348;SDS011;5974;42.710;27.258;2023-05-27T01:08:16;6.53;;;5.80;;
12348;SDS011;5974;42.710;27.258;2023-05-27T01:10:49;6.50;;;5.90;;
12348;SDS011;5974;42.710;27.258;2023-05-27T01:13:22;5.93;;;5.43;;
12348;SDS011;5974;42.710;27.258;2023-05-27T01:15:59;6.13;;;5.40;;
12348;SDS011;5974;42.710;27.258;2023-05-27T01:18:30;6.53;;;5.67;;
12348;SDS011;5974;42.710;27.258;2023-05-27T01:20:59;6.80;;;5.57;;
12348;SDS011;5974;42.710;27.258;2023-05-27T01:23:33;6.30;;;5.60;;
12348;SDS011;5974;42.710;27.258;2023-05-27T01:26:03;7.43;;;5.37;;
12348;SDS011;5974;42.710;27.258;2023-05-27T01:28:30;5.57;;;5.00;;
12348;SDS011;5974;42.710;27.258;2023-05-27T01:31:02;6.17;;;5.53;;
12348;SDS011;5974;42.710;27.258;2023-05-27T01:33:35;5.67;;;5.23;;
12348;SDS011;5974;42.710;27.258;2023-05-27T01:36:05;9.00;;;5.57;;
12348;SDS011;5974;42.710;27.258;2023-05-27T01:38:39;11.03;;;5.77;;
12348;SDS011;5974;42.710;27.258;2023-05-27T01:41:09;8.37;;;6.53;;
12348;SDS011;5974;42.710;27.258;2023-05-27T01:43:37;8.30;;;7.43;;
12348;SDS011;5974;42.710;27.258;2023-05-27T01:46:05;9.13;;;6.67;;
12348;SDS011;5974;42.710;27.258;2023-05-27T01:48:32;7.30;;;6.33;;
12348;SDS011;5974;42.710;27.258;2023-05-27T01:50:59;7.00;;;6.40;;
12348;SDS011;5974;42.710;27.258;2023-05-27T01:53:26;9.13;;;6.17;;
12348;SDS011;5974;42.710;27.258;2023-05-27T01:55:54;7.30;;;6.33;;
12348;SDS011;5974;42.710;27.258;2023-05-27T01:58:21;9.50;;;6.53;;
12348;SDS011;5974;42.710;27.258;2023-05-27T02:00:48;6.47;;;5.77;;
12348;SDS011;5974;42.710;27.258;2023-05-27T02:03:15;9.67;;;6.43;;
12348;SDS011;5974;42.710;27.258;2023-05-27T02:05:42;8.17;;;6.37;;
12348;SDS011;5974;42.710;27.258;2023-05-27T02:08:10;7.27;;;6.67;;
12348;SDS011;5974;42.710;27.258;2023-05-27T02:10:36;7.10;;;6.37;;
12348;SDS011;5974;42.710;27.258;2023-05-27T02:13:05;7.43;;;6.83;;
12348;SDS011;5974;42.710;27.258;2023-05-27T02:15:32;8.10;;;6.67;;
12348;SDS011;5974;42.710;27.258;2023-05-27T02:17:58;7.27;;;6.57;;
12348;SDS011;5974;42.710;27.258;2023-05-27T02:20:26;7.20;;;6.60;;
12348;SDS011;5974;42.710;27.258;2023-05-27T02:22:54;8.93;;;7.00;;
12348;SDS011;5974;42.710;27.258;2023-05-27T02:25:21;7.50;;;6.70;;
12348;SDS011;5974;42.710;27.258;2023-05-27T02:27:47;7.37;;;6.40;;
12348;SDS011;5974;42.710;27.258;2023-05-27T02:30:18;8.13;;;6.30;;
12348;SDS011;5974;42.710;27.258;2023-05-27T02:32:45;13.00;;;6.50;;
12348;SDS011;5974;42.710;27.258;2023-05-27T02:35:13;7.80;;;5.87;;
12348;SDS011;5974;42.710;27.258;2023-05-27T02:37:40;6.93;;;6.33;;
12348;SDS011;5974;42.710;27.258;2023-05-27T02:40:07;7.87;;;6.07;;
12348;SDS011;5974;42.710;27.258;2023-05-27T02:42:36;6.53;;;5.50;;
12348;SDS011;5974;42.710;27.258;2023-05-27T02:45:03;6.80;;;6.10;;
12348;SDS011;5974;42.710;27.258;2023-05-27T02:47:33;8.60;;;6.23;;
12348;SDS011;5974;42.710;27.258;2023-05-27T02:50:00;6.67;;;6.10;;
12348;SDS011;5974;42.710;27.258;2023-05-27T02:52:26;5.80;;;5.20;;
12348;SDS011;5974;42.710;27.258;2023-05-27T02:54:53;5.77;;;4.80;;
12348;SDS011;5974;42.710;27.258;2023-05-27T02:57:20;6.60;;;4.90;;
12348;SDS011;5974;42.710;27.258;2023-05-27T02:59:47;4.87;;;4.33;;
12348;SDS011;5974;42.710;27.258;2023-05-27T03:02:14;4.23;;;3.83;;
12348;SDS011;5974;42.710;27.258;2023-05-27T03:04:42;5.83;;;3.70;;
12348;SDS011;5974;42.710;27.258;2023-05-27T03:07:09;4.73;;;3.70;;
12348;SDS011;5974;42.710;27.258;2023-05-27T03:09:36;3.50;;;3.20;;
12348;SDS011;5974;42.710;27.258;2023-05-27T03:12:03;3.80;;;3.60;;
12348;SDS011;5974;42.710;27.258;2023-05-27T03:14:30;5.33;;;3.77;;
12348;SDS011;5974;42.710;27.258;2023-05-27T03:16:57;4.20;;;3.60;;
12348;SDS011;5974;42.710;27.258;2023-05-27T03:19:24;3.93;;;3.63;;
12348;SDS011;5974;42.710;27.258;2023-05-27T03:21:52;5.20;;;4.20;;
12348;SDS011;5974;42.710;27.258;2023-05-27T03:24:20;4.30;;;3.90;;
12348;SDS011;5974;42.710;27.258;2023-05-27T03:26:47;5.90;;;4.17;;
12348;SDS011;5974;42.710;27.258;2023-05-27T03:29:13;5.07;;;4.67;;
12348;SDS011;5974;42.710;27.258;2023-05-27T03:31:41;9.83;;;7.40;;
12348;SDS011;5974;42.710;27.258;2023-05-27T03:34:07;13.97;;;6.60;;
12348;SDS011;5974;42.710;27.258;2023-05-27T03:36:34;6.67;;;4.80;;
12348;SDS011;5974;42.710;27.258;2023-05-27T03:39:04;6.60;;;4.63;;
12348;SDS011;5974;42.710;27.258;2023-05-27T03:41:31;4.70;;;3.63;;
12348;SDS011;5974;42.710;27.258;2023-05-27T03:43:58;4.07;;;3.67;;
12348;SDS011;5974;42.710;27.258;2023-05-27T03:46:25;4.27;;;3.73;;
12348;SDS011;5974;42.710;27.258;2023-05-27T03:48:51;6.33;;;3.70;;
12348;SDS011;5974;42.710;27.258;2023-05-27T03:51:19;5.37;;;3.67;;
12348;SDS011;5974;42.710;27.258;2023-05-27T03:53:46;5.37;;;3.20;;
12348;SDS011;5974;42.710;27.258;2023-05-27T03:56:15;5.00;;;3.80;;
12348;SDS011;5974;42.710;27.258;2023-05-27T03:58:42;3.37;;;3.07;;
12348;SDS011;5974;42.710;27.258;2023-05-27T04:01:09;4.40;;;3.37;;
12348;SDS011;5974;42.710;27.258;2023-05-27T04:03:36;3.83;;;3.30;;
12348;SDS011;5974;42.710;27.258;2023-05-27T04:06:04;6.80;;;6.10;;
12348;SDS011;5974;42.710;27.258;2023-05-27T04:08:32;6.40;;;3.97;;
12348;SDS011;5974;42.710;27.258;2023-05-27T04:11:00;3.30;;;3.00;;
12348;SDS011;5974;42.710;27.258;2023-05-27T04:13:29;2.73;;;2.60;;
12348;SDS011;5974;42.710;27.258;2023-05-27T04:15:55;2.50;;;2.30;;
12348;SDS011;5974;42.710;27.258;2023-05-27T04:18:24;3.87;;;2.50;;
12348;SDS011;5974;42.710;27.258;2023-05-27T04:20:51;3.00;;;2.70;;
12348;SDS011;5974;42.710;27.258;2023-05-27T04:23:18;3.67;;;2.50;;
12348;SDS011;5974;42.710;27.258;2023-05-27T04:25:45;5.60;;;2.80;;
12348;SDS011;5974;42.710;27.258;2023-05-27T04:28:13;4.95;;;2.90;;
12348;SDS011;5974;42.710;27.258;2023-05-27T04:30:42;3.10;;;2.72;;
12348;SDS011;5974;42.710;27.258;2023-05-27T04:33:09;3.00;;;2.80;;
12348;SDS011;5974;42.710;27.258;2023-05-27T04:35:36;3.73;;;2.80;;
12348;SDS011;5974;42.710;27.258;2023-05-27T04:38:03;3.23;;;2.80;;
12348;SDS011;5974;42.710;27.258;2023-05-27T04:40:30;3.07;;;2.70;;
12348;SDS011;5974;42.710;27.258;2023-05-27T04:42:59;4.07;;;3.00;;
12348;SDS011;5974;42.710;27.258;2023-05-27T04:45:26;3.43;;;2.70;;
12348;SDS011;5974;42.710;27.258;2023-05-27T04:47:56;4.67;;;2.80;;
12348;SDS011;5974;42.710;27.258;2023-05-27T04:50:22;3.90;;;2.67;;
12348;SDS011;5974;42.710;27.258;2023-05-27T04:52:50;8.53;;;2.60;;
12348;SDS011;5974;42.710;27.258;2023-05-27T04:55:18;3.90;;;2.90;;
12348;SDS011;5974;42.710;27.258;2023-05-27T04:57:45;3.20;;;2.90;;
12348;SDS011;5974;42.710;27.258;2023-05-27T05:00:12;2.90;;;2.70;;
12348;SDS011;5974;42.710;27.258;2023-05-27T05:03:02;5.37;;;2.77;;
12348;SDS011;5974;42.710;27.258;2023-05-27T05:05:30;4.70;;;2.80;;
12348;SDS011;5974;42.710;27.258;2023-05-27T05:07:57;3.07;;;2.73;;
12348;SDS011;5974;42.710;27.258;2023-05-27T05:10:24;3.83;;;2.53;;
12348;SDS011;5974;42.710;27.258;2023-05-27T05:12:51;4.80;;;2.80;;
12348;SDS011;5974;42.710;27.258;2023-05-27T05:15:18;3.00;;;2.80;;
12348;SDS011;5974;42.710;27.258;2023-05-27T05:17:45;2.58;;;2.47;;
12348;SDS011;5974;42.710;27.258;2023-05-27T05:20:13;3.28;;;2.80;;
12348;SDS011;5974;42.710;27.258;2023-05-27T05:22:40;3.67;;;2.90;;
12348;SDS011;5974;42.710;27.258;2023-05-27T05:25:07;3.33;;;2.90;;
12348;SDS011;5974;42.710;27.258;2023-05-27T05:27:34;3.50;;;3.20;;
12348;SDS011;5974;42.710;27.258;2023-05-27T05:30:02;4.57;;;2.90;;
12348;SDS011;5974;42.710;27.258;2023-05-27T05:32:30;5.27;;;3.20;;
12348;SDS011;5974;42.710;27.258;2023-05-27T05:34:57;5.67;;;3.20;;
12348;SDS011;5974;42.710;27.258;2023-05-27T05:37:25;5.03;;;3.13;;
12348;SDS011;5974;42.710;27.258;2023-05-27T05:39:53;3.77;;;3.40;;
12348;SDS011;5974;42.710;27.258;2023-05-27T05:42:21;4.10;;;3.10;;
12348;SDS011;5974;42.710;27.258;2023-05-27T05:44:49;3.53;;;3.20;;
12348;SDS011;5974;42.710;27.258;2023-05-27T05:47:16;3.50;;;3.20;;
12348;SDS011;5974;42.710;27.258;2023-05-27T05:49:43;4.07;;;3.00;;
12348;SDS011;5974;42.710;27.258;2023-05-27T05:52:09;4.60;;;3.73;;
12348;SDS011;5974;42.710;27.258;2023-05-27T05:54:38;3.37;;;3.07;;
12348;SDS011;5974;42.710;27.258;2023-05-27T05:57:05;4.27;;;3.57;;
12348;SDS011;5974;42.710;27.258;2023-05-27T05:59:31;4.57;;;3.30;;
12348;SDS011;5974;42.710;27.258;2023-05-27T06:01:58;3.43;;;3.00;;
12348;SDS011;5974;42.710;27.258;2023-05-27T06:04:25;4.50;;;3.37;;
12348;SDS011;5974;42.710;27.258;2023-05-27T06:06:52;3.97;;;3.50;;
12348;SDS011;5974;42.710;27.258;2023-05-27T06:09:19;5.27;;;3.40;;
12348;SDS011;5974;42.710;27.258;2023-05-27T06:11:47;4.87;;;3.40;;
12348;SDS011;5974;42.710;27.258;2023-05-27T06:14:14;6.80;;;3.17;;
12348;SDS011;5974;42.710;27.258;2023-05-27T06:16:41;4.33;;;3.57;;
12348;SDS011;5974;42.710;27.258;2023-05-27T06:19:08;4.77;;;3.57;;
12348;SDS011;5974;42.710;27.258;2023-05-27T06:21:35;4.50;;;3.40;;
12348;SDS011;5974;42.710;27.258;2023-05-27T06:24:02;3.53;;;3.30;;
12348;SDS011;5974;42.710;27.258;2023-05-27T06:26:29;7.10;;;3.50;;
12348;SDS011;5974;42.710;27.258;2023-05-27T06:28:57;3.70;;;3.40;;
12348;SDS011;5974;42.710;27.258;2023-05-27T06:31:24;4.30;;;3.67;;
12348;SDS011;5974;42.710;27.258;2023-05-27T06:33:52;7.53;;;3.70;;
12348;SDS011;5974;42.710;27.258;2023-05-27T06:36:19;5.60;;;3.57;;
12348;SDS011;5974;42.710;27.258;2023-05-27T06:38:45;3.80;;;3.50;;
12348;SDS011;5974;42.710;27.258;2023-05-27T06:41:12;5.27;;;3.57;;
12348;SDS011;5974;42.710;27.258;2023-05-27T06:43:39;4.73;;;3.77;;
12348;SDS011;5974;42.710;27.258;2023-05-27T06:46:07;4.30;;;3.73;;
12348;SDS011;5974;42.710;27.258;2023-05-27T06:48:34;4.13;;;3.83;;
12348;SDS011;5974;42.710;27.258;2023-05-27T06:51:01;3.77;;;3.47;;
12348;SDS011;5974;42.710;27.258;2023-05-27T06:53:28;6.23;;;4.03;;
12348;SDS011;5974;42.710;27.258;2023-05-27T06:55:55;8.27;;;3.83;;
12348;SDS011;5974;42.710;27.258;2023-05-27T06:58:22;5.20;;;3.67;;
12348;SDS011;5974;42.710;27.258;2023-05-27T07:00:49;6.80;;;3.93;;
12348;SDS011;5974;42.710;27.258;2023-05-27T07:03:17;4.70;;;4.10;;
12348;SDS011;5974;42.710;27.258;2023-05-27T07:05:44;6.53;;;4.10;;
12348;SDS011;5974;42.710;27.258;2023-05-27T07:08:12;4.60;;;4.20;;
12348;SDS011;5974;42.710;27.258;2023-05-27T07:10:39;5.30;;;3.90;;
12348;SDS011;5974;42.710;27.258;2023-05-27T07:13:06;4.90;;;3.97;;
12348;SDS011;5974;42.710;27.258;2023-05-27T07:15:32;5.30;;;4.10;;
12348;SDS011;5974;42.710;27.258;2023-05-27T07:17:59;11.80;;;4.20;;
12348;SDS011;5974;42.710;27.258;2023-05-27T07:20:28;4.53;;;4.10;;
12348;SDS011;5974;42.710;27.258;2023-05-27T07:22:55;5.20;;;4.10;;
12348;SDS011;5974;42.710;27.258;2023-05-27T07:25:22;5.17;;;3.83;;
12348;SDS011;5974;42.710;27.258;2023-05-27T07:27:50;4.70;;;4.10;;
12348;SDS011;5974;42.710;27.258;2023-05-27T07:30:17;7.87;;;4.33;;
12348;SDS011;5974;42.710;27.258;2023-05-27T07:32:45;5.10;;;4.07;;
12348;SDS011;5974;42.710;27.258;2023-05-27T07:35:12;4.40;;;4.00;;
12348;SDS011;5974;42.710;27.258;2023-05-27T07:37:40;5.13;;;3.90;;
12348;SDS011;5974;42.710;27.258;2023-05-27T07:40:07;8.53;;;4.57;;
12348;SDS011;5974;42.710;27.258;2023-05-27T07:42:34;5.00;;;4.60;;
12348;SDS011;5974;42.710;27.258;2023-05-27T07:45:02;8.83;;;4.63;;
12348;SDS011;5974;42.710;27.258;2023-05-27T07:47:29;5.83;;;4.47;;
12348;SDS011;5974;42.710;27.258;2023-05-27T07:49:56;6.07;;;4.57;;
12348;SDS011;5974;42.710;27.258;2023-05-27T07:52:23;4.67;;;4.07;;
12348;SDS011;5974;42.710;27.258;2023-05-27T07:54:51;6.33;;;4.37;;
12348;SDS011;5974;42.710;27.258;2023-05-27T07:57:18;5.40;;;4.30;;
12348;SDS011;5974;42.710;27.258;2023-05-27T07:59:45;7.27;;;4.53;;
12348;SDS011;5974;42.710;27.258;2023-05-27T08:02:11;6.83;;;4.77;;
12348;SDS011;5974;42.710;27.258;2023-05-27T08:04:38;5.93;;;4.70;;
12348;SDS011;5974;42.710;27.258;2023-05-27T08:07:05;4.90;;;4.50;;
12348;SDS011;5974;42.710;27.258;2023-05-27T08:09:32;5.17;;;4.67;;
12348;SDS011;5974;42.710;27.258;2023-05-27T08:12:00;5.83;;;4.60;;
12348;SDS011;5974;42.710;27.258;2023-05-27T08:14:27;4.90;;;4.43;;
12348;SDS011;5974;42.710;27.258;2023-05-27T08:16:54;4.87;;;4.47;;
12348;SDS011;5974;42.710;27.258;2023-05-27T08:19:22;4.93;;;4.43;;
12348;SDS011;5974;42.710;27.258;2023-05-27T08:21:49;7.67;;;4.40;;
12348;SDS011;5974;42.710;27.258;2023-05-27T08:24:16;5.33;;;4.40;;
12348;SDS011;5974;42.710;27.258;2023-05-27T08:26:46;4.33;;;4.03;;
12348;SDS011;5974;42.710;27.258;2023-05-27T08:29:15;7.47;;;4.20;;
12348;SDS011;5974;42.710;27.258;2023-05-27T08:31:42;5.43;;;4.30;;
12348;SDS011;5974;42.710;27.258;2023-05-27T08:34:09;4.67;;;4.27;;
12348;SDS011;5974;42.710;27.258;2023-05-27T08:36:36;5.33;;;4.90;;
12348;SDS011;5974;42.710;27.258;2023-05-27T08:39:03;6.40;;;4.67;;
12348;SDS011;5974;42.710;27.258;2023-05-27T08:41:30;4.97;;;4.53;;
12348;SDS011;5974;42.710;27.258;2023-05-27T08:43:57;4.90;;;4.50;;
12348;SDS011;5974;42.710;27.258;2023-05-27T08:46:27;7.47;;;4.77;;
12348;SDS011;5974;42.710;27.258;2023-05-27T08:48:54;4.80;;;4.40;;
12348;SDS011;5974;42.710;27.258;2023-05-27T08:51:21;5.07;;;4.43;;
12348;SDS011;5974;42.710;27.258;2023-05-27T08:53:49;5.87;;;4.50;;
12348;SDS011;5974;42.710;27.258;2023-05-27T08:56:17;6.93;;;5.00;;
12348;SDS011;5974;42.710;27.258;2023-05-27T08:58:46;10.70;;;5.20;;
12348;SDS011;5974;42.710;27.258;2023-05-27T09:01:15;5.23;;;4.20;;
12348;SDS011;5974;42.710;27.258;2023-05-27T09:03:44;7.63;;;4.93;;
12348;SDS011;5974;42.710;27.258;2023-05-27T09:06:11;5.03;;;4.53;;
12348;SDS011;5974;42.710;27.258;2023-05-27T09:08:38;4.73;;;4.30;;
12348;SDS011;5974;42.710;27.258;2023-05-27T09:11:05;9.10;;;4.87;;
12348;SDS011;5974;42.710;27.258;2023-05-27T09:13:33;4.70;;;4.30;;
12348;SDS011;5974;42.710;27.258;2023-05-27T09:16:01;5.57;;;4.20;;
12348;SDS011;5974;42.710;27.258;2023-05-27T09:18:32;5.43;;;4.50;;
12348;SDS011;5974;42.710;27.258;2023-05-27T09:21:01;4.90;;;4.50;;
12348;SDS011;5974;42.710;27.258;2023-05-27T09:23:28;5.90;;;4.53;;
12348;SDS011;5974;42.710;27.258;2023-05-27T09:25:55;5.63;;;4.63;;
12348;SDS011;5974;42.710;27.258;2023-05-27T09:28:22;8.03;;;4.80;;
12348;SDS011;5974;42.710;27.258;2023-05-27T09:30:58;8.23;;;4.80;;
12348;SDS011;5974;42.710;27.258;2023-05-27T09:33:26;5.17;;;4.73;;
12348;SDS011;5974;42.710;27.258;2023-05-27T09:35:53;6.20;;;4.63;;
12348;SDS011;5974;42.710;27.258;2023-05-27T09:38:22;5.23;;;4.20;;
12348;SDS011;5974;42.710;27.258;2023-05-27T09:40:48;8.43;;;4.40;;
12348;SDS011;5974;42.710;27.258;2023-05-27T09:43:15;6.20;;;4.50;;
12348;SDS011;5974;42.710;27.258;2023-05-27T09:45:42;6.53;;;4.23;;
12348;SDS011;5974;42.710;27.258;2023-05-27T09:48:11;5.13;;;4.50;;
12348;SDS011;5974;42.710;27.258;2023-05-27T09:50:39;5.47;;;4.30;;
12348;SDS011;5974;42.710;27.258;2023-05-27T09:53:07;4.37;;;4.00;;
12348;SDS011;5974;42.710;27.258;2023-05-27T09:55:36;5.37;;;4.50;;
12348;SDS011;5974;42.710;27.258;2023-05-27T09:58:03;5.50;;;4.27;;
12348;SDS011;5974;42.710;27.258;2023-05-27T10:00:30;7.37;;;4.47;;
12348;SDS011;5974;42.710;27.258;2023-05-27T10:03:00;4.90;;;4.50;;
12348;SDS011;5974;42.710;27.258;2023-05-27T10:05:27;5.10;;;4.63;;
12348;SDS011;5974;42.710;27.258;2023-05-27T10:07:55;6.43;;;4.60;;
12348;SDS011;5974;42.710;27.258;2023-05-27T10:10:22;4.83;;;4.30;;
12348;SDS011;5974;42.710;27.258;2023-05-27T10:12:50;5.70;;;4.33;;
12348;SDS011;5974;42.710;27.258;2023-05-27T10:15:22;5.87;;;4.87;;
12348;SDS011;5974;42.710;27.258;2023-05-27T10:17:52;5.83;;;4.40;;
12348;SDS011;5974;42.710;27.258;2023-05-27T10:20:26;4.77;;;4.30;;
12348;SDS011;5974;42.710;27.258;2023-05-27T10:22:54;4.77;;;4.23;;
12348;SDS011;5974;42.710;27.258;2023-05-27T10:25:35;7.10;;;4.40;;
12348;SDS011;5974;42.710;27.258;2023-05-27T10:28:04;4.83;;;4.23;;
12348;SDS011;5974;42.710;27.258;2023-05-27T10:30:41;5.40;;;4.30;;
12348;SDS011;5974;42.710;27.258;2023-05-27T10:33:09;5.30;;;4.40;;
12348;SDS011;5974;42.710;27.258;2023-05-27T10:35:39;5.07;;;4.57;;
12348;SDS011;5974;42.710;27.258;2023-05-27T10:38:14;5.57;;;4.77;;
12348;SDS011;5974;42.710;27.258;2023-05-27T10:40:42;5.87;;;4.20;;
12348;SDS011;5974;42.710;27.258;2023-05-27T10:43:20;7.40;;;4.27;;
12348;SDS011;5974;42.710;27.258;2023-05-27T10:45:47;5.03;;;4.50;;
12348;SDS011;5974;42.710;27.258;2023-05-27T10:48:15;5.03;;;4.63;;
12348;SDS011;5974;42.710;27.258;2023-05-27T10:50:49;5.43;;;4.77;;
12348;SDS011;5974;42.710;27.258;2023-05-27T10:53:16;5.40;;;4.90;;
12348;SDS011;5974;42.710;27.258;2023-05-27T10:55:46;9.87;;;4.70;;
12348;SDS011;5974;42.710;27.258;2023-05-27T10:58:15;5.30;;;4.63;;
12348;SDS011;5974;42.710;27.258;2023-05-27T11:00:44;6.33;;;4.73;;
12348;SDS011;5974;42.710;27.258;2023-05-27T11:03:19;5.13;;;4.70;;
12348;SDS011;5974;42.710;27.258;2023-05-27T11:05:48;6.10;;;4.60;;
12348;SDS011;5974;42.710;27.258;2023-05-27T11:08:23;5.77;;;4.80;;
12348;SDS011;5974;42.710;27.258;2023-05-27T11:10:50;5.10;;;4.60;;
12348;SDS011;5974;42.710;27.258;2023-05-27T11:13:28;8.00;;;4.30;;
12348;SDS011;5974;42.710;27.258;2023-05-27T11:16:01;4.67;;;4.27;;
12348;SDS011;5974;42.710;27.258;2023-05-27T11:18:36;5.77;;;4.20;;
12348;SDS011;5974;42.710;27.258;2023-05-27T11:21:04;5.13;;;4.70;;
12348;SDS011;5974;42.710;27.258;2023-05-27T11:23:35;8.30;;;4.50;;
12348;SDS011;5974;42.710;27.258;2023-05-27T11:26:03;5.53;;;4.77;;
12348;SDS011;5974;42.710;27.258;2023-05-27T11:28:30;7.50;;;5.40;;
12348;SDS011;5974;42.710;27.258;2023-05-27T11:30:58;9.17;;;5.10;;
12348;SDS011;5974;42.710;27.258;2023-05-27T11:33:31;6.27;;;5.67;;
12348;SDS011;5974;42.710;27.258;2023-05-27T11:36:05;11.20;;;6.20;;
12348;SDS011;5974;42.710;27.258;2023-05-27T11:38:39;5.90;;;5.17;;
12348;SDS011;5974;42.710;27.258;2023-05-27T11:41:12;7.43;;;5.87;;
12348;SDS011;5974;42.710;27.258;2023-05-27T11:43:46;9.90;;;6.17;;
12348;SDS011;5974;42.710;27.258;2023-05-27T11:46:15;9.57;;;6.93;;
12348;SDS011;5974;42.710;27.258;2023-05-27T11:48:42;7.50;;;6.90;;
12348;SDS011;5974;42.710;27.258;2023-05-27T11:51:09;7.77;;;6.17;;
12348;SDS011;5974;42.710;27.258;2023-05-27T11:53:38;10.77;;;6.70;;
12348;SDS011;5974;42.710;27.258;2023-05-27T11:56:06;9.37;;;7.20;;
12348;SDS011;5974;42.710;27.258;2023-05-27T11:58:33;10.47;;;7.17;;
12348;SDS011;5974;42.710;27.258;2023-05-27T12:01:01;7.07;;;6.37;;
12348;SDS011;5974;42.710;27.258;2023-05-27T12:03:30;8.07;;;6.77;;
12348;SDS011;5974;42.710;27.258;2023-05-27T12:05:59;13.50;;;6.80;;
12348;SDS011;5974;42.710;27.258;2023-05-27T12:08:26;7.50;;;6.80;;
12348;SDS011;5974;42.710;27.258;2023-05-27T12:10:53;14.20;;;10.37;;
12348;SDS011;5974;42.710;27.258;2023-05-27T12:13:20;16.77;;;7.30;;
12348;SDS011;5974;42.710;27.258;2023-05-27T12:15:48;11.17;;;7.00;;
12348;SDS011;5974;42.710;27.258;2023-05-27T12:18:15;10.47;;;6.50;;
12348;SDS011;5974;42.710;27.258;2023-05-27T12:20:43;7.50;;;6.70;;
12348;SDS011;5974;42.710;27.258;2023-05-27T12:23:10;11.10;;;5.87;;
12348;SDS011;5974;42.710;27.258;2023-05-27T12:25:38;12.90;;;6.40;;
12348;SDS011;5974;42.710;27.258;2023-05-27T12:28:06;11.57;;;6.53;;
12348;SDS011;5974;42.710;27.258;2023-05-27T12:30:34;8.73;;;6.17;;
12348;SDS011;5974;42.710;27.258;2023-05-27T12:33:01;9.63;;;6.07;;
12348;SDS011;5974;42.710;27.258;2023-05-27T12:35:28;8.70;;;6.37;;
12348;SDS011;5974;42.710;27.258;2023-05-27T12:37:57;7.27;;;6.50;;
12348;SDS011;5974;42.710;27.258;2023-05-27T12:40:24;11.00;;;6.77;;
12348;SDS011;5974;42.710;27.258;2023-05-27T12:42:52;11.17;;;7.20;;
12348;SDS011;5974;42.710;27.258;2023-05-27T12:45:18;7.93;;;7.13;;
12348;SDS011;5974;42.710;27.258;2023-05-27T12:47:47;10.33;;;6.73;;
12348;SDS011;5974;42.710;27.258;2023-05-27T12:50:14;10.50;;;7.57;;
12348;SDS011;5974;42.710;27.258;2023-05-27T12:52:42;8.57;;;7.73;;
12348;SDS011;5974;42.710;27.258;2023-05-27T12:55:13;9.90;;;7.57;;
12348;SDS011;5974;42.710;27.258;2023-05-27T12:57:42;8.40;;;7.40;;
12348;SDS011;5974;42.710;27.258;2023-05-27T13:00:09;10.37;;;6.87;;
12348;SDS011;5974;42.710;27.258;2023-05-27T13:02:37;8.17;;;6.23;;
12348;SDS011;5974;42.710;27.258;2023-05-27T13:05:05;7.80;;;6.47;;
12348;SDS011;5974;42.710;27.258;2023-05-27T13:07:32;7.17;;;6.47;;
12348;SDS011;5974;42.710;27.258;2023-05-27T13:10:00;9.87;;;7.00;;
12348;SDS011;5974;42.710;27.258;2023-05-27T13:12:30;7.03;;;6.33;;
12348;SDS011;5974;42.710;27.258;2023-05-27T13:14:59;7.53;;;6.87;;
12348;SDS011;5974;42.710;27.258;2023-05-27T13:17:28;8.03;;;7.17;;
12348;SDS011;5974;42.710;27.258;2023-05-27T13:19:55;9.50;;;8.47;;
12348;SDS011;5974;42.710;27.258;2023-05-27T13:22:22;10.50;;;8.27;;
12348;SDS011;5974;42.710;27.258;2023-05-27T13:24:50;8.10;;;7.30;;
12348;SDS011;5974;42.710;27.258;2023-05-27T13:27:16;9.80;;;7.47;;
12348;SDS011;5974;42.710;27.258;2023-05-27T13:29:45;9.23;;;7.70;;
12348;SDS011;5974;42.710;27.258;2023-05-27T13:32:12;10.77;;;7.40;;
12348;SDS011;5974;42.710;27.258;2023-05-27T13:34:39;8.73;;;7.87;;
12348;SDS011;5974;42.710;27.258;2023-05-27T13:37:06;8.70;;;7.80;;
12348;SDS011;5974;42.710;27.258;2023-05-27T13:39:33;18.37;;;8.73;;
12348;SDS011;5974;42.710;27.258;2023-05-27T13:42:00;8.03;;;7.23;;
12348;SDS011;5974;42.710;27.258;2023-05-27T13:44:27;7.67;;;7.00;;
12348;SDS011;5974;42.710;27.258;2023-05-27T13:46:55;7.50;;;6.70;;
12348;SDS011;5974;42.710;27.258;2023-05-27T13:49:22;7.90;;;6.90;;
12348;SDS011;5974;42.710;27.258;2023-05-27T13:51:49;7.33;;;6.73;;
12348;SDS011;5974;42.710;27.258;2023-05-27T13:54:16;8.03;;;6.37;;
12348;SDS011;5974;42.710;27.258;2023-05-27T13:56:43;7.20;;;6.23;;
12348;SDS011;5974;42.710;27.258;2023-05-27T13:59:10;6.93;;;6.33;;
12348;SDS011;5974;42.710;27.258;2023-05-27T14:01:37;10.00;;;6.40;;
12348;SDS011;5974;42.710;27.258;2023-05-27T14:04:07;6.07;;;5.47;;
12348;SDS011;5974;42.710;27.258;2023-05-27T14:06:34;5.80;;;5.07;;
12348;SDS011;5974;42.710;27.258;2023-05-27T14:09:01;7.63;;;5.77;;
12348;SDS011;5974;42.710;27.258;2023-05-27T14:11:28;5.73;;;5.23;;
12348;SDS011;5974;42.710;27.258;2023-05-27T14:13:55;5.30;;;4.80;;
12348;SDS011;5974;42.710;27.258;2023-05-27T14:16:22;5.20;;;4.70;;
12348;SDS011;5974;42.710;27.258;2023-05-27T14:18:49;4.30;;;4.00;;
12348;SDS011;5974;42.710;27.258;2023-05-27T14:21:17;5.10;;;4.40;;
12348;SDS011;5974;42.710;27.258;2023-05-27T14:23:44;5.00;;;4.20;;
12348;SDS011;5974;42.710;27.258;2023-05-27T14:26:11;4.83;;;4.40;;
12348;SDS011;5974;42.710;27.258;2023-05-27T14:28:38;4.50;;;4.13;;
12348;SDS011;5974;42.710;27.258;2023-05-27T14:31:05;4.30;;;3.90;;
12348;SDS011;5974;42.710;27.258;2023-05-27T14:33:32;4.17;;;3.87;;
12348;SDS011;5974;42.710;27.258;2023-05-27T14:35:59;7.03;;;3.90;;
12348;SDS011;5974;42.710;27.258;2023-05-27T14:38:27;13.73;;;3.93;;
12348;SDS011;5974;42.710;27.258;2023-05-27T14:40:54;4.20;;;3.23;;
12348;SDS011;5974;42.710;27.258;2023-05-27T14:43:22;3.50;;;3.23;;
12348;SDS011;5974;42.710;27.258;2023-05-27T14:45:48;5.97;;;4.03;;
12348;SDS011;5974;42.710;27.258;2023-05-27T14:48:15;4.07;;;3.67;;
12348;SDS011;5974;42.710;27.258;2023-05-27T14:50:43;4.37;;;3.50;;